Empire, Arkansas
Current Conditions -  °F | °C
As of 9:55 PM on Thursday 18 Dec 2014 (Local Time) from KBQP Reporting Station
Overcast Overcast  
Wind Chill: 47°   Ceiling: 4200
Heat Index: 47°   Visibility: 10mi
Dew Point: 46°   Wind: 0mph
Humidity: 93%   Direction: NA
Pressure: 30.19"   Gusts: NA
Location:  33.1135°N, 91.5295°W
Report Text: KBQP 190355Z AUTO 00000KT 10SM OVC042 09/08 A3019 RMK AO2 T00860076
Loading
Personal Weather Stations






























Interactive Weather Map New forecast layout! Learn more

10-Day Weather Forecast

Advertisements
Track Severe Weather on mobile